Time;durP1;ratioP1;P1;durP2;ratioP2;P2;SDS_P1;SDS_P2;PMS_P1;PMS_P2;Temp;Humidity;BMP_temperature;BMP_pressure;BME280_temperature;BME280_humidity;BME280_pressure;Samples;Min_cycle;Max_cycle;Signal;HPM_P1;HPM_P2
2023/03/05 00:00:13;;;;;;;48.08;18.70;;;5.20;99.90;;;;;;5053854;28;20466;-65
2023/03/05 00:02:39;;;;;;;42.90;18.45;;;5.10;99.90;;;;;;5053223;28;20025;-66
2023/03/05 00:05:05;;;;;;;49.63;19.02;;;5.20;99.90;;;;;;5052128;28;20271;-66
2023/03/05 00:07:31;;;;;;;47.28;18.10;;;5.10;99.90;;;;;;5053272;28;20029;-66
2023/03/05 00:09:59;;;;;;;50.72;19.10;;;5.00;99.90;;;;;;5053488;28;20075;-66
2023/03/05 00:12:25;;;;;;;49.28;18.10;;;5.00;99.90;;;;;;5053480;28;20498;-65
2023/03/05 00:14:50;;;;;;;42.30;17.77;;;5.10;99.90;;;;;;5053370;28;20087;-66
2023/03/05 00:17:16;;;;;;;58.43;19.50;;;5.20;99.90;;;;;;5052975;28;20036;-67
2023/03/05 00:19:41;;;;;;;45.73;16.80;;;5.20;99.90;;;;;;5053230;28;20090;-65
2023/03/05 00:22:07;;;;;;;53.10;19.37;;;5.30;99.90;;;;;;5053187;28;20171;-65
2023/03/05 00:24:32;;;;;;;51.93;19.70;;;5.20;99.90;;;;;;5053275;28;20040;-66
2023/03/05 00:26:58;;;;;;;47.08;17.15;;;5.20;99.90;;;;;;5053171;28;20067;-66
2023/03/05 00:29:23;;;;;;;51.13;18.70;;;5.20;99.90;;;;;;5052171;28;20098;-66
2023/03/05 00:31:49;;;;;;;48.37;17.60;;;5.20;99.90;;;;;;5052806;28;20040;-66
2023/03/05 00:34:17;;;;;;;58.87;19.00;;;5.30;99.90;;;;;;5053472;28;20028;-66
2023/03/05 00:36:46;;;;;;;50.22;18.42;;;5.20;99.90;;;;;;5053465;28;20446;-67
2023/03/05 00:39:12;;;;;;;43.97;17.63;;;5.10;99.90;;;;;;5053519;28;20036;-66
2023/03/05 00:41:38;;;;;;;46.75;18.50;;;5.20;99.90;;;;;;5053483;28;20478;-65
2023/03/05 00:44:04;;;;;;;47.80;17.40;;;5.10;99.90;;;;;;5053463;28;20029;-65
2023/03/05 00:46:30;;;;;;;47.88;17.73;;;5.20;99.90;;;;;;5053093;28;20021;-66
2023/03/05 00:48:56;;;;;;;48.07;18.43;;;5.10;99.90;;;;;;5053320;28;20029;-66
2023/03/05 00:51:22;;;;;;;49.97;18.48;;;5.10;99.90;;;;;;5053032;28;20033;-65
2023/03/05 00:53:48;;;;;;;48.85;18.30;;;5.10;99.90;;;;;;5053270;28;20033;-66
2023/03/05 00:56:13;;;;;;;49.30;17.10;;;5.20;99.90;;;;;;5053383;28;20537;-66
2023/03/05 00:58:39;;;;;;;53.53;17.60;;;5.10;99.90;;;;;;5053506;28;20072;-66
2023/03/05 01:01:05;;;;;;;45.63;17.63;;;5.20;99.90;;;;;;5051489;28;20044;-66
2023/03/05 01:03:32;;;;;;;48.03;16.77;;;5.20;99.90;;;;;;5053071;28;20021;-65
2023/03/05 01:05:58;;;;;;;48.75;17.05;;;5.20;99.90;;;;;;5052686;28;20025;-66
2023/03/05 01:08:24;;;;;;;47.95;18.20;;;5.10;99.90;;;;;;5052621;28;20025;-66
2023/03/05 01:10:50;;;;;;;43.20;17.63;;;5.00;99.90;;;;;;5052566;28;20374;-66
2023/03/05 01:13:15;;;;;;;43.33;17.00;;;5.10;99.90;;;;;;5052483;28;20104;-66
2023/03/05 01:15:41;;;;;;;45.20;16.87;;;5.20;99.90;;;;;;5052527;28;20031;-66
2023/03/05 01:18:07;;;;;;;47.83;17.00;;;5.20;99.90;;;;;;5062035;28;20031;-65
2023/03/05 01:20:33;;;;;;;45.43;17.33;;;5.20;99.90;;;;;;5072910;28;20028;-65
2023/03/05 01:23:00;;;;;;;45.72;17.45;;;5.20;99.90;;;;;;5072614;28;20027;-65
2023/03/05 01:25:27;;;;;;;43.80;16.40;;;5.20;99.90;;;;;;5073199;28;20530;-65
2023/03/05 01:27:53;;;;;;;44.70;16.70;;;5.20;99.90;;;;;;5073156;28;20020;-65
2023/03/05 01:30:18;;;;;;;44.08;16.98;;;5.10;99.90;;;;;;5072919;28;20039;-65
2023/03/05 01:32:44;;;;;;;47.40;17.23;;;5.20;99.90;;;;;;5072394;28;20493;-66
2023/03/05 01:35:16;;;;;;;44.33;16.50;;;5.10;99.90;;;;;;5072926;28;20095;-66
2023/03/05 01:37:42;;;;;;;45.33;16.90;;;5.10;99.90;;;;;;5072835;28;20060;-64
2023/03/05 01:40:09;;;;;;;46.37;17.17;;;5.10;99.90;;;;;;5072509;28;20064;-66
2023/03/05 01:42:35;;;;;;;46.47;16.70;;;5.20;99.90;;;;;;5072169;28;20024;-65
2023/03/05 01:45:05;;;;;;;42.47;15.83;;;5.20;99.90;;;;;;5072482;28;20021;-66
2023/03/05 01:47:30;;;;;;;46.45;15.77;;;5.10;99.90;;;;;;5067483;28;20033;-66
2023/03/05 01:49:56;;;;;;;47.33;16.67;;;5.20;99.90;;;;;;5052406;28;20389;-65
2023/03/05 01:52:24;;;;;;;47.40;16.95;;;5.20;99.90;;;;;;5052598;28;20029;-66
2023/03/05 01:54:57;;;;;;;40.90;15.70;;;5.20;99.90;;;;;;5052751;28;20057;-65
2023/03/05 01:57:32;;;;;;;49.72;18.80;;;5.20;99.90;;;;;;5052100;28;20127;-65
2023/03/05 02:00:04;;;;;;;44.17;17.05;;;5.10;99.90;;;;;;5053985;28;20025;-65
2023/03/05 02:02:31;;;;;;;43.20;15.95;;;5.00;99.90;;;;;;5053064;28;20025;-65
2023/03/05 02:05:02;;;;;;;;;;;5.20;99.90;;;;;;5052828;28;20132;-65
2023/03/05 02:07:28;;;;;;;41.97;16.30;;;5.10;99.90;;;;;;5051983;28;19917;-65
2023/03/05 02:09:54;;;;;;;42.80;15.25;;;5.20;99.90;;;;;;5052277;28;20028;-64
2023/03/05 02:12:20;;;;;;;45.23;16.67;;;5.10;99.90;;;;;;5053784;28;20029;-66
2023/03/05 02:15:03;;;;;;;50.75;16.20;;;5.00;99.90;;;;;;5055771;28;20095;-64
2023/03/05 02:17:29;;;;;;;42.78;15.88;;;5.10;99.90;;;;;;5054166;28;20436;-64
2023/03/05 02:20:03;;;;;;;46.13;16.95;;;5.10;99.90;;;;;;5055677;28;20059;-65
2023/03/05 02:22:29;;;;;;;43.67;16.13;;;5.10;99.90;;;;;;5054786;28;20041;-66
2023/03/05 02:24:54;;;;;;;41.03;15.27;;;5.20;99.90;;;;;;5055295;28;20021;-64
2023/03/05 02:27:33;;;;;;;43.10;16.37;;;5.10;99.90;;;;;;5055275;28;20028;-64
2023/03/05 02:29:59;;;;;;;35.17;15.07;;;5.20;99.90;;;;;;5055296;28;20116;-66
2023/03/05 02:32:25;;;;;;;45.05;16.75;;;5.20;99.90;;;;;;5055078;28;20036;-64
2023/03/05 02:34:50;;;;;;;43.60;16.23;;;5.20;99.90;;;;;;5055249;28;20029;-65
2023/03/05 02:37:16;;;;;;;77.30;29.27;;;5.10;99.90;;;;;;5055207;28;20111;-65
2023/03/05 02:39:42;;;;;;;45.43;16.97;;;5.20;99.90;;;;;;5055316;28;20112;-65
2023/03/05 02:42:08;;;;;;;49.30;17.53;;;5.20;99.90;;;;;;5055401;28;20025;-65
2023/03/05 02:44:33;;;;;;;47.95;18.45;;;5.10;99.90;;;;;;5053971;28;20056;-64
2023/03/05 02:46:59;;;;;;;39.93;14.97;;;5.10;99.90;;;;;;5055270;28;20490;-63
2023/03/05 02:49:25;;;;;;;49.47;17.20;;;5.10;99.90;;;;;;5054559;28;20025;-63
2023/03/05 02:51:50;;;;;;;40.40;16.33;;;5.10;99.90;;;;;;5055824;28;20127;-64
2023/03/05 02:54:16;;;;;;;43.20;17.20;;;5.00;99.90;;;;;;5054640;28;20051;-64
2023/03/05 02:56:42;;;;;;;50.10;16.75;;;5.10;99.90;;;;;;5056331;28;20075;-64
2023/03/05 02:59:08;;;;;;;42.07;15.33;;;5.00;99.90;;;;;;5056125;28;20028;-64
2023/03/05 03:01:33;;;;;;;45.17;16.35;;;5.00;99.90;;;;;;5053858;28;20060;-65
2023/03/05 03:03:59;;;;;;;47.17;17.30;;;4.90;99.90;;;;;;5055463;28;20500;-65
2023/03/05 03:06:25;;;;;;;50.77;17.70;;;5.00;99.90;;;;;;5055689;28;20029;-65
2023/03/05 03:08:50;;;;;;;41.40;16.67;;;4.90;99.90;;;;;;5054067;28;20025;-65
2023/03/05 03:11:17;;;;;;;38.73;16.07;;;4.90;99.90;;;;;;5055233;28;20033;-65
2023/03/05 03:13:43;;;;;;;46.42;16.10;;;4.90;99.90;;;;;;5055335;28;20377;-64
2023/03/05 03:16:11;;;;;;;46.97;16.50;;;4.90;99.90;;;;;;5053474;28;20037;-66
2023/03/05 03:18:36;;;;;;;54.75;17.48;;;4.90;99.90;;;;;;5055699;28;20040;-66
2023/03/05 03:21:03;;;;;;;55.10;17.30;;;4.90;99.90;;;;;;5053880;28;20021;-63
2023/03/05 03:23:29;;;;;;;41.15;16.30;;;4.90;99.90;;;;;;5054505;28;20461;-64
2023/03/05 03:25:55;;;;;;;41.80;15.93;;;4.90;99.90;;;;;;5054656;28;20466;-66
2023/03/05 03:28:21;;;;;;;46.73;17.10;;;4.90;99.90;;;;;;5054534;28;20036;-64
2023/03/05 03:30:46;;;;;;;45.60;15.30;;;4.90;99.90;;;;;;5055299;28;20638;-65
2023/03/05 03:33:12;;;;;;;50.13;16.80;;;4.90;99.90;;;;;;5054484;28;20029;-63
2023/03/05 03:35:37;;;;;;;42.57;16.63;;;4.80;99.90;;;;;;5055323;28;20482;-65
2023/03/05 03:38:03;;;;;;;48.90;15.77;;;4.90;99.90;;;;;;5055847;28;20024;-65
2023/03/05 03:40:29;;;;;;;44.93;17.70;;;4.90;99.90;;;;;;5054817;28;20029;-64
2023/03/05 03:42:54;;;;;;;42.60;15.65;;;4.80;99.90;;;;;;5055199;28;20025;-65
2023/03/05 03:45:21;;;;;;;51.53;18.10;;;4.90;99.90;;;;;;5055153;28;20032;-64
2023/03/05 03:47:50;;;;;;;39.97;16.00;;;4.90;99.90;;;;;;5054263;28;20441;-63
2023/03/05 03:50:17;;;;;;;46.03;16.33;;;4.90;99.90;;;;;;5056511;28;20029;-64
2023/03/05 03:52:42;;;;;;;45.58;16.05;;;5.00;99.90;;;;;;5074741;28;20037;-64
2023/03/05 03:55:09;;;;;;;42.30;15.93;;;4.90;99.90;;;;;;5075152;28;20115;-65
2023/03/05 03:57:35;;;;;;;49.42;15.77;;;4.90;99.90;;;;;;5075399;28;20032;-65
2023/03/05 04:00:01;;;;;;;41.67;16.40;;;5.00;99.90;;;;;;5076092;28;20047;-65
2023/03/05 04:02:27;;;;;;;48.05;16.25;;;5.00;99.90;;;;;;5076566;28;20025;-65
2023/03/05 04:04:52;;;;;;;39.87;15.53;;;5.00;99.90;;;;;;5075380;28;20089;-65
2023/03/05 04:07:18;;;;;;;46.20;15.60;;;5.00;99.90;;;;;;5074417;28;20043;-65
2023/03/05 04:09:44;;;;;;;50.83;16.38;;;4.90;99.90;;;;;;5074445;28;20064;-63
2023/03/05 04:12:10;;;;;;;43.37;15.27;;;4.90;99.90;;;;;;5072751;28;20028;-64
2023/03/05 04:14:35;;;;;;;42.60;15.33;;;4.90;99.90;;;;;;5073918;28;20032;-64
2023/03/05 04:17:01;;;;;;;43.93;16.57;;;4.90;99.90;;;;;;5072550;28;20055;-64
2023/03/05 04:19:29;;;;;;;46.97;16.37;;;4.90;99.90;;;;;;5074162;28;20079;-65
2023/03/05 04:21:55;;;;;;;46.85;16.98;;;5.00;99.90;;;;;;5074789;28;20354;-65
2023/03/05 04:24:21;;;;;;;42.42;15.75;;;5.00;99.90;;;;;;5075605;28;20016;-64
2023/03/05 04:26:46;;;;;;;41.00;16.03;;;4.90;99.90;;;;;;5075067;28;20025;-65
2023/03/05 04:29:12;;;;;;;44.77;16.70;;;4.90;99.90;;;;;;5073068;28;20031;-65
2023/03/05 04:31:37;;;;;;;40.60;15.50;;;4.90;99.90;;;;;;5073628;28;20382;-65
2023/03/05 04:34:03;;;;;;;48.13;17.27;;;4.90;99.90;;;;;;5073398;28;20480;-65
2023/03/05 04:36:28;;;;;;;54.03;17.67;;;4.90;99.90;;;;;;5073331;28;20029;-64
2023/03/05 04:38:54;;;;;;;43.27;15.73;;;4.90;99.90;;;;;;5073616;28;20546;-65
2023/03/05 04:41:20;;;;;;;47.00;17.07;;;4.80;99.90;;;;;;5073667;28;20033;-65
2023/03/05 04:43:45;;;;;;;43.03;16.43;;;4.80;99.90;;;;;;5073791;28;20036;-65
2023/03/05 04:46:11;;;;;;;43.50;15.63;;;4.80;99.90;;;;;;5073760;28;20028;-65
2023/03/05 04:48:36;;;;;;;42.67;15.93;;;4.80;99.90;;;;;;5073386;28;20040;-65
2023/03/05 04:51:02;;;;;;;47.33;16.67;;;4.80;99.90;;;;;;5064194;28;20056;-64
2023/03/05 04:53:27;;;;;;;43.77;16.30;;;4.80;99.90;;;;;;5052736;28;20040;-64
2023/03/05 04:55:54;;;;;;;43.93;17.00;;;4.80;99.90;;;;;;5053213;28;20029;-65
2023/03/05 04:58:19;;;;;;;;;;;4.80;99.90;;;;;;5053102;28;20025;-65
2023/03/05 05:00:45;;;;;;;42.40;16.33;;;4.80;99.90;;;;;;5052637;28;19963;-65
2023/03/05 05:03:10;;;;;;;42.80;15.80;;;4.80;99.90;;;;;;5052533;28;20033;-65
2023/03/05 05:05:36;;;;;;;50.53;17.93;;;4.70;99.90;;;;;;5052599;28;20025;-64
2023/03/05 05:08:02;;;;;;;41.20;16.60;;;4.70;99.90;;;;;;5051355;28;20106;-64
2023/03/05 05:10:27;;;;;;;42.20;15.60;;;4.80;99.90;;;;;;5052527;28;20088;-63
2023/03/05 05:12:53;;;;;;;40.13;15.13;;;4.70;99.90;;;;;;5052710;28;20531;-64
2023/03/05 05:15:19;;;;;;;50.77;17.30;;;4.70;99.90;;;;;;5052640;28;20032;-64
2023/03/05 05:17:46;;;;;;;41.97;15.50;;;4.70;99.90;;;;;;5054201;28;20052;-65
2023/03/05 05:20:13;;;;;;;46.72;16.17;;;4.80;99.90;;;;;;5053075;28;20029;-64
2023/03/05 05:22:39;;;;;;;41.63;15.98;;;4.80;99.90;;;;;;5052562;28;20204;-64
2023/03/05 05:25:05;;;;;;;47.33;16.88;;;4.90;99.90;;;;;;5071072;28;20032;-64
2023/03/05 05:27:31;;;;;;;44.08;16.08;;;4.80;99.90;;;;;;5073041;28;20422;-64
2023/03/05 05:29:57;;;;;;;49.43;17.00;;;4.80;99.90;;;;;;5072391;28;20029;-64
2023/03/05 05:32:24;;;;;;;45.07;17.03;;;4.80;99.90;;;;;;5072250;28;20020;-64
2023/03/05 05:34:54;;;;;;;47.85;17.27;;;4.80;99.90;;;;;;5072440;28;20082;-64
2023/03/05 05:37:20;;;;;;;50.28;17.30;;;4.70;99.90;;;;;;5072540;28;20021;-64
2023/03/05 05:39:49;;;;;;;44.95;16.80;;;4.60;99.90;;;;;;5072677;28;20515;-64
2023/03/05 05:42:15;;;;;;;55.47;19.27;;;4.60;99.90;;;;;;5072837;28;20017;-63
2023/03/05 05:44:41;;;;;;;43.10;16.45;;;4.70;99.90;;;;;;5072786;28;20564;-64
2023/03/05 05:47:06;;;;;;;48.53;16.57;;;4.90;99.90;;;;;;5072962;28;20067;-64
2023/03/05 05:49:32;;;;;;;50.50;17.30;;;4.90;99.90;;;;;;5076122;28;20107;-64
2023/03/05 05:51:58;;;;;;;50.47;17.80;;;4.80;99.90;;;;;;5076399;28;20158;-65
2023/03/05 05:54:23;;;;;;;46.47;17.10;;;4.80;99.90;;;;;;5076452;28;20020;-65
2023/03/05 05:56:49;;;;;;;46.10;16.67;;;4.70;99.90;;;;;;5076757;28;20431;-64
2023/03/05 05:59:14;;;;;;;43.77;16.33;;;4.70;99.90;;;;;;5075970;28;20017;-65
2023/03/05 06:01:40;;;;;;;44.97;17.60;;;4.70;99.90;;;;;;5075719;28;20027;-66
2023/03/05 06:04:06;;;;;;;48.53;17.90;;;4.80;99.90;;;;;;5075932;28;20020;-65
2023/03/05 06:06:33;;;;;;;49.93;18.10;;;4.60;99.90;;;;;;5074705;28;20043;-63
2023/03/05 06:08:59;;;;;;;51.00;16.85;;;4.60;99.90;;;;;;5076344;28;20017;-65
2023/03/05 06:11:25;;;;;;;43.07;18.60;;;4.70;99.90;;;;;;5076055;28;20031;-65
2023/03/05 06:13:50;;;;;;;48.35;16.88;;;4.50;99.90;;;;;;5076513;28;20020;-65
2023/03/05 06:16:19;;;;;;;48.27;17.43;;;4.60;99.90;;;;;;5075628;28;20028;-64
2023/03/05 06:18:45;;;;;;;44.72;17.20;;;4.70;99.90;;;;;;5075232;28;20060;-65
2023/03/05 06:21:13;;;;;;;52.88;18.08;;;4.60;99.90;;;;;;5065716;28;20083;-65
2023/03/05 06:23:39;;;;;;;43.78;16.52;;;4.60;99.90;;;;;;5056431;28;20361;-64
2023/03/05 06:26:07;;;;;;;45.90;16.85;;;4.70;99.90;;;;;;5054347;28;20136;-64
2023/03/05 06:28:33;;;;;;;46.00;17.38;;;4.80;99.90;;;;;;5055410;28;20029;-64
2023/03/05 06:31:03;;;;;;;48.50;17.00;;;4.90;99.90;;;;;;5055897;28;20488;-64
2023/03/05 06:33:29;;;;;;;43.83;16.30;;;5.00;99.90;;;;;;5055584;28;20033;-64
2023/03/05 06:35:56;;;;;;;50.47;16.90;;;5.00;99.90;;;;;;5055283;28;20059;-64
2023/03/05 06:38:21;;;;;;;49.20;18.80;;;5.00;99.90;;;;;;5068415;28;20040;-64
2023/03/05 06:40:47;;;;;;;43.13;16.30;;;4.90;99.90;;;;;;5086840;28;20039;-66
2023/03/05 06:43:12;;;;;;;47.50;16.53;;;4.90;99.90;;;;;;5094257;28;20066;-65
2023/03/05 06:45:38;;;;;;;40.07;17.37;;;4.90;99.90;;;;;;5075177;28;20040;-65
2023/03/05 06:48:03;;;;;;;47.43;17.10;;;4.90;99.90;;;;;;5074696;28;20116;-66
2023/03/05 06:50:29;;;;;;;51.67;18.00;;;5.00;99.90;;;;;;5073544;28;20469;-66
2023/03/05 06:52:55;;;;;;;50.97;17.80;;;5.00;99.90;;;;;;5074480;28;20047;-65
2023/03/05 06:55:20;;;;;;;50.70;16.63;;;5.00;99.90;;;;;;5074887;28;20020;-65
2023/03/05 06:57:46;;;;;;;51.57;17.93;;;4.90;99.90;;;;;;5074106;28;20436;-67
2023/03/05 07:00:12;;;;;;;46.60;16.80;;;4.90;99.90;;;;;;5075697;28;20070;-67
2023/03/05 07:02:38;;;;;;;50.38;17.50;;;4.90;99.90;;;;;;5076696;28;20091;-66
2023/03/05 07:05:05;;;;;;;46.17;17.30;;;4.90;99.90;;;;;;5077025;28;20056;-67
2023/03/05 07:07:32;;;;;;;50.17;18.90;;;4.90;99.90;;;;;;5075179;28;20052;-66
2023/03/05 07:09:57;;;;;;;;;;;5.00;99.90;;;;;;5076367;28;20397;-66
2023/03/05 07:12:23;;;;;;;45.58;16.23;;;4.90;99.90;;;;;;5075431;28;20004;-66
2023/03/05 07:14:48;;;;;;;51.17;17.40;;;4.90;99.90;;;;;;5074900;28;20370;-66
2023/03/05 07:17:14;;;;;;;50.97;17.87;;;5.00;99.90;;;;;;5073495;28;20115;-65
2023/03/05 07:19:40;;;;;;;45.50;15.87;;;4.90;99.90;;;;;;5074650;28;20087;-65
2023/03/05 07:22:06;;;;;;;50.35;17.60;;;5.00;99.90;;;;;;5074991;28;20325;-66
2023/03/05 07:24:32;;;;;;;;;;;5.10;99.90;;;;;;5074884;28;20420;-65
2023/03/05 07:26:58;;;;;;;48.33;17.38;;;5.00;99.90;;;;;;5074704;28;19904;-67
2023/03/05 07:29:25;;;;;;;45.05;16.48;;;5.00;99.90;;;;;;5075295;28;20032;-66
2023/03/05 07:31:51;;;;;;;48.67;17.05;;;5.00;99.90;;;;;;5077579;28;20039;-67
2023/03/05 07:34:17;;;;;;;50.72;18.10;;;5.00;99.90;;;;;;5076405;28;20397;-66
2023/03/05 07:36:42;;;;;;;50.57;18.40;;;5.20;99.90;;;;;;5075090;28;20140;-66
2023/03/05 07:39:10;;;;;;;46.53;18.13;;;5.20;99.90;;;;;;5073972;28;20029;-66
2023/03/05 07:41:36;;;;;;;46.47;17.17;;;5.30;99.90;;;;;;5074830;28;20067;-66
2023/03/05 07:44:02;;;;;;;53.57;17.73;;;5.30;99.90;;;;;;5077373;28;20042;-66
2023/03/05 07:46:30;;;;;;;48.83;18.00;;;5.40;99.90;;;;;;5078701;28;20406;-66
2023/03/05 07:48:55;;;;;;;51.30;19.38;;;5.40;99.90;;;;;;5077587;28;20028;-67
2023/03/05 07:51:22;;;;;;;48.03;19.17;;;5.40;99.90;;;;;;5066099;28;20086;-66
2023/03/05 07:53:49;;;;;;;48.97;18.38;;;5.30;99.90;;;;;;5057349;28;20017;-70
2023/03/05 07:56:31;;;;;;;47.63;17.60;;;5.40;99.90;;;;;;5058209;28;20029;-71
2023/03/05 07:59:01;;;;;;;53.35;19.02;;;5.40;99.90;;;;;;5054964;28;20082;-70
2023/03/05 08:01:27;;;;;;;49.90;17.73;;;5.50;99.90;;;;;;5062993;28;20025;-69
2023/03/05 08:03:53;;;;;;;;;;;5.40;99.90;;;;;;5075708;28;20020;-71
2023/03/05 08:06:18;;;;;;;51.20;17.30;;;5.30;99.90;;;;;;5074259;28;20273;-70
2023/03/05 08:08:44;;;;;;;46.23;17.03;;;5.30;99.90;;;;;;5074982;28;20024;-70
2023/03/05 08:11:12;;;;;;;52.53;19.33;;;5.30;99.90;;;;;;5114111;22;20122;-68
2023/03/05 08:13:38;;;;;;;52.17;18.67;;;5.20;99.90;;;;;;5113293;28;20102;-68
2023/03/05 08:16:06;;;;;;;58.20;19.42;;;5.30;99.90;;;;;;5100895;28;20062;-66
2023/03/05 08:18:32;;;;;;;53.92;18.90;;;5.40;99.90;;;;;;5075976;28;20032;-67
2023/03/05 08:20:58;;;;;;;53.15;19.55;;;5.40;99.90;;;;;;5094032;28;20107;-68
2023/03/05 08:23:24;;;;;;;52.00;19.23;;;5.50;99.90;;;;;;5093906;28;20099;-69
2023/03/05 08:25:49;;;;;;;51.45;19.48;;;5.60;99.90;;;;;;5094205;28;20445;-68
2023/03/05 08:28:18;;;;;;;46.07;19.47;;;5.60;99.90;;;;;;5094512;28;20085;-68
2023/03/05 08:30:45;;;;;;;51.92;18.45;;;5.50;99.90;;;;;;5076365;28;20492;-61
2023/03/05 08:33:11;;;;;;;51.80;18.90;;;5.50;99.90;;;;;;5101714;28;20035;-63
2023/03/05 08:35:37;;;;;;;45.97;17.80;;;5.50;99.90;;;;;;5102508;28;20024;-64
2023/03/05 08:38:03;;;;;;;46.73;17.93;;;5.80;99.90;;;;;;5106152;28;20073;-67
2023/03/05 08:40:30;;;;;;;45.47;18.02;;;5.70;99.90;;;;;;5114169;28;20471;-66
2023/03/05 08:42:56;;;;;;;;;;;5.70;99.90;;;;;;5095629;28;20118;-70
2023/03/05 08:45:22;;;;;;;45.75;18.38;;;5.90;99.90;;;;;;5091904;28;20324;-68
2023/03/05 08:47:48;;;;;;;48.97;19.48;;;5.90;99.90;;;;;;5100737;28;20119;-66
2023/03/05 08:50:13;;;;;;;45.83;16.93;;;6.00;99.90;;;;;;5113195;28;20055;-66
2023/03/05 08:52:39;;;;;;;49.97;17.73;;;6.00;99.90;;;;;;5114726;28;20031;-71
2023/03/05 08:55:05;;;;;;;51.57;18.90;;;6.20;99.90;;;;;;5097174;28;20077;-68
2023/03/05 08:57:30;;;;;;;48.53;18.43;;;6.20;99.90;;;;;;5116020;28;20032;-67
2023/03/05 08:59:56;;;;;;;48.87;19.47;;;6.20;99.90;;;;;;5095913;28;20281;-69
2023/03/05 09:02:21;;;;;;;47.20;17.73;;;6.10;99.90;;;;;;5114161;28;20024;-67
2023/03/05 09:04:47;;;;;;;47.37;18.23;;;6.10;99.90;;;;;;5114910;28;20172;-67
2023/03/05 09:07:13;;;;;;;49.57;16.93;;;6.10;99.90;;;;;;5114443;28;20019;-66
2023/03/05 09:09:39;;;;;;;42.23;17.80;;;5.90;99.90;;;;;;5084421;28;20020;-66
2023/03/05 09:12:05;;;;;;;52.55;19.52;;;5.90;99.90;;;;;;5094016;28;20085;-72
2023/03/05 09:14:30;;;;;;;51.25;19.90;;;5.90;99.90;;;;;;5095805;28;20029;-69
2023/03/05 09:16:56;;;;;;;49.60;18.10;;;5.90;99.90;;;;;;5096146;28;20047;-68
2023/03/05 09:19:23;;;;;;;43.30;17.05;;;6.00;99.90;;;;;;5108050;28;20048;-70
2023/03/05 09:21:49;;;;;;;44.80;18.55;;;6.00;99.90;;;;;;5080934;28;20039;-69
2023/03/05 09:24:15;;;;;;;43.63;17.83;;;6.10;99.90;;;;;;5098284;28;20020;-68
2023/03/05 09:26:41;;;;;;;46.72;16.98;;;6.00;99.90;;;;;;5079490;28;20056;-69
2023/03/05 09:29:07;;;;;;;37.85;16.70;;;6.10;99.90;;;;;;5080877;28;20069;-68
2023/03/05 09:31:36;;;;;;;;;;;6.20;99.90;;;;;;5097650;28;20028;-67
2023/03/05 09:34:01;;;;;;;40.25;17.30;;;6.20;99.90;;;;;;5113866;28;20419;-67
2023/03/05 09:36:30;;;;;;;40.70;16.73;;;6.20;99.90;;;;;;5117693;28;20111;-67
2023/03/05 09:38:55;;;;;;;41.85;16.52;;;6.30;99.90;;;;;;5094743;28;20567;-66
2023/03/05 09:41:50;;;;;;;40.03;16.80;;;6.50;99.90;;;;;;5079431;28;20112;-66
2023/03/05 09:44:36;;;;;;;35.20;15.80;;;6.60;99.90;;;;;;5097815;28;20028;-66
2023/03/05 09:47:34;;;;;;;42.13;16.33;;;6.70;99.90;;;;;;5097318;28;20020;-66
2023/03/05 09:50:32;;;;;;;35.15;15.85;;;6.80;99.90;;;;;;5097556;28;20085;-67
2023/03/05 09:53:16;;;;;;;38.35;16.17;;;6.90;99.90;;;;;;5097792;28;20123;-66
2023/03/05 09:55:58;;;;;;;43.35;16.10;;;6.80;99.90;;;;;;5097582;28;20046;-66
2023/03/05 09:58:30;;;;;;;38.45;17.08;;;6.90;99.90;;;;;;5101728;28;20032;-66
2023/03/05 10:01:12;;;;;;;39.45;16.85;;;6.70;99.90;;;;;;5097987;28;20426;-66
2023/03/05 10:03:50;;;;;;;36.13;15.55;;;6.80;99.90;;;;;;5099566;28;20024;-67
2023/03/05 10:06:40;;;;;;;44.45;17.05;;;7.00;99.90;;;;;;5082877;28;20087;-67
2023/03/05 10:09:09;;;;;;;39.50;16.17;;;7.10;99.90;;;;;;5112508;28;20114;-66
2023/03/05 10:11:57;;;;;;;34.45;16.02;;;6.90;99.90;;;;;;5116450;28;20036;-66
2023/03/05 10:14:23;;;;;;;36.30;16.08;;;6.90;99.90;;;;;;5118411;28;20110;-65
2023/03/05 10:16:57;;;;;;;37.20;15.57;;;7.00;99.90;;;;;;5098460;28;20152;-69
2023/03/05 10:19:42;;;;;;;34.78;15.18;;;7.20;99.90;;;;;;5098288;28;20051;-68
2023/03/05 10:22:57;;;;;;;36.40;16.02;;;7.10;99.90;;;;;;5116700;28;20034;-67
2023/03/05 10:25:33;;;;;;;36.15;15.27;;;6.90;99.90;;;;;;5014419;28;20437;-67
2023/03/05 10:28:08;;;;;;;33.03;14.57;;;6.50;99.90;;;;;;4997432;28;20054;-68
2023/03/05 10:30:43;;;;;;;36.03;15.02;;;6.50;99.90;;;;;;5010457;28;20030;-68
2023/03/05 10:33:23;;;;;;;35.28;14.75;;;6.40;99.90;;;;;;4997420;28;20026;-67
2023/03/05 10:36:10;;;;;;;34.67;14.70;;;6.40;99.90;;;;;;5013927;28;20491;-68
2023/03/05 10:39:07;;;;;;;34.17;15.10;;;6.40;99.90;;;;;;5008851;28;20038;-69
2023/03/05 10:41:39;;;;;;;37.55;16.20;;;6.50;99.90;;;;;;5008751;28;20042;-69
2023/03/05 10:44:24;;;;;;;38.10;15.32;;;6.50;99.90;;;;;;5014063;28;20466;-66
2023/03/05 10:46:50;;;;;;;34.67;14.30;;;6.50;99.90;;;;;;5003722;28;20035;-68
2023/03/05 10:49:23;;;;;;;30.27;13.52;;;6.80;99.90;;;;;;5007141;28;20041;-67
2023/03/05 10:51:55;;;;;;;30.38;14.93;;;6.70;99.90;;;;;;5014090;28;20038;-67
2023/03/05 10:54:30;;;;;;;32.28;14.65;;;6.50;99.90;;;;;;5013883;28;20041;-67
2023/03/05 10:57:17;;;;;;;33.22;14.20;;;6.50;99.90;;;;;;5013466;28;20022;-68
2023/03/05 10:59:50;;;;;;;37.53;15.18;;;6.60;99.90;;;;;;5072638;28;20032;-66
2023/03/05 11:02:15;;;;;;;32.72;14.13;;;6.80;99.90;;;;;;5097576;28;20028;-65
2023/03/05 11:04:41;;;;;;;32.78;14.18;;;6.50;99.90;;;;;;5116231;28;20581;-67
2023/03/05 11:07:33;;;;;;;37.00;13.83;;;6.50;99.90;;;;;;5115558;28;20027;-66
2023/03/05 11:09:59;;;;;;;32.85;15.10;;;6.70;99.90;;;;;;5096942;28;20032;-67
2023/03/05 11:12:35;;;;;;;36.10;15.47;;;6.70;99.90;;;;;;5115369;28;20012;-66
2023/03/05 11:15:12;;;;;;;28.20;14.05;;;6.70;99.90;;;;;;5097076;28;20024;-67
2023/03/05 11:17:42;;;;;;;31.52;13.05;;;6.60;99.90;;;;;;5097131;28;20028;-66
2023/03/05 11:20:31;;;;;;;32.80;14.02;;;6.60;99.90;;;;;;5095007;28;20024;-66
2023/03/05 11:23:23;;;;;;;31.23;15.05;;;6.40;99.90;;;;;;5094884;28;20484;-67
2023/03/05 11:25:54;;;;;;;32.42;14.90;;;6.30;99.90;;;;;;5095147;28;20445;-67
2023/03/05 11:28:26;;;;;;;36.17;15.40;;;6.30;99.90;;;;;;5095302;28;20035;-69
2023/03/05 11:31:17;;;;;;;34.25;15.27;;;6.50;99.90;;;;;;5086151;28;20024;-68
2023/03/05 11:33:58;;;;;;;30.48;12.93;;;6.60;99.90;;;;;;5091907;28;20040;-69
2023/03/05 11:36:25;;;;;;;32.03;15.27;;;6.80;99.90;;;;;;5095682;28;20077;-69
2023/03/05 11:39:07;;;;;;;29.73;14.25;;;7.20;99.90;;;;;;5094465;28;20059;-67
2023/03/05 11:41:50;;;;;;;34.75;15.80;;;7.20;99.90;;;;;;5094105;28;20055;-67
2023/03/05 11:44:24;;;;;;;32.05;14.27;;;7.20;99.90;;;;;;5075884;28;20021;-67
2023/03/05 11:46:54;;;;;;;33.10;14.70;;;7.10;99.90;;;;;;5101319;28;20068;-66
2023/03/05 11:49:26;;;;;;;33.55;14.15;;;7.00;99.90;;;;;;5105835;28;20024;-66
2023/03/05 11:52:11;;;;;;;36.50;16.17;;;6.70;99.90;;;;;;5099931;28;20028;-66
2023/03/05 11:55:07;;;;;;;29.45;14.18;;;6.80;99.90;;;;;;5105802;28;20042;-67
2023/03/05 11:57:55;;;;;;;32.40;14.77;;;7.00;99.90;;;;;;5075920;28;20066;-68
2023/03/05 12:00:28;;;;;;;31.73;14.25;;;7.00;99.90;;;;;;5094489;28;20024;-68
2023/03/05 12:02:56;;;;;;;34.58;16.08;;;7.00;99.90;;;;;;5094529;28;20369;-68
2023/03/05 12:05:22;;;;;;;30.08;13.63;;;6.80;99.90;;;;;;5076330;28;20024;-68
2023/03/05 12:07:57;;;;;;;33.83;15.33;;;6.90;99.90;;;;;;5094763;28;20024;-68
2023/03/05 12:10:24;;;;;;;28.95;13.55;;;6.80;99.90;;;;;;5075777;28;20046;-67
2023/03/05 12:12:57;;;;;;;33.92;15.18;;;7.00;99.90;;;;;;5075807;28;20028;-66
2023/03/05 12:15:36;;;;;;;29.55;13.88;;;7.10;99.90;;;;;;5094385;28;20434;-69
2023/03/05 12:18:05;;;;;;;30.38;13.18;;;6.80;99.90;;;;;;5093990;28;20533;-67
2023/03/05 12:20:42;;;;;;;32.80;13.60;;;6.80;99.90;;;;;;5094052;28;20413;-67
2023/03/05 12:23:17;;;;;;;28.15;13.48;;;6.90;99.90;;;;;;5076073;28;20034;-67
2023/03/05 12:25:48;;;;;;;34.03;14.43;;;6.70;99.90;;;;;;5094019;28;20036;-67
2023/03/05 12:28:34;;;;;;;28.63;13.00;;;6.80;99.90;;;;;;5093712;28;20016;-68
2023/03/05 12:31:24;;;;;;;35.00;14.82;;;6.80;99.90;;;;;;5076351;28;20554;-69
2023/03/05 12:33:50;;;;;;;32.92;14.07;;;6.60;99.90;;;;;;5094001;28;20062;-68
2023/03/05 12:36:18;;;;;;;31.33;13.17;;;6.80;99.90;;;;;;5103591;28;20056;-68
2023/03/05 12:38:54;;;;;;;34.35;13.70;;;7.00;99.90;;;;;;5100515;28;20028;-69
2023/03/05 12:41:23;;;;;;;32.13;15.00;;;7.00;99.90;;;;;;5078884;28;20055;-68
2023/03/05 12:44:19;;;;;;;30.08;13.27;;;7.00;99.90;;;;;;5098915;28;20110;-68
2023/03/05 12:47:10;;;;;;;35.08;15.07;;;7.00;99.90;;;;;;4996530;28;20038;-68